Time;durP1;ratioP1;P1;durP2;ratioP2;P2;SDS_P1;SDS_P2;PMS_P1;PMS_P2;Temp;Humidity;BMP_temperature;BMP_pressure;BME280_temperature;BME280_humidity;BME280_pressure;Samples;Min_cycle;Max_cycle;Signal;HPM_P1;HPM_P2
2022/03/05 00:00:30;;;;;;;40.00;20.80;;;-0.40;99.90;;;;;;5113568;28;20242;-63
2022/03/05 00:02:56;;;;;;;38.03;20.17;;;-0.30;99.90;;;;;;5113804;28;20169;-63
2022/03/05 00:05:22;;;;;;;43.90;21.37;;;-0.30;99.90;;;;;;5113527;28;20201;-63
2022/03/05 00:07:48;;;;;;;34.53;19.50;;;-0.30;99.90;;;;;;5113784;28;20531;-63
2022/03/05 00:10:14;;;;;;;39.40;20.87;;;-0.30;99.90;;;;;;5113613;28;20255;-64
2022/03/05 00:12:40;;;;;;;41.27;20.57;;;-0.30;99.90;;;;;;5114167;28;20260;-63
2022/03/05 00:15:06;;;;;;;36.77;20.80;;;-0.30;99.90;;;;;;5116042;28;20279;-63
2022/03/05 00:17:32;;;;;;;36.83;20.40;;;-0.40;99.90;;;;;;5117716;28;20259;-63
2022/03/05 00:19:58;;;;;;;35.07;20.67;;;-0.50;99.90;;;;;;5117776;28;20248;-63
2022/03/05 00:22:24;;;;;;;35.37;21.20;;;-0.50;99.90;;;;;;5117450;28;20242;-63
2022/03/05 00:24:49;;;;;;;39.80;21.77;;;-0.50;99.90;;;;;;5117030;28;20664;-63
2022/03/05 00:27:16;;;;;;;34.13;20.03;;;-0.60;99.90;;;;;;5117108;28;20218;-63
2022/03/05 00:29:42;;;;;;;33.43;18.47;;;-0.50;99.90;;;;;;5115846;28;20188;-63
2022/03/05 00:32:08;;;;;;;37.00;20.33;;;-0.60;99.90;;;;;;5116917;27;20185;-64
2022/03/05 00:34:34;;;;;;;38.10;21.27;;;-0.60;99.90;;;;;;5117169;28;20665;-64
2022/03/05 00:36:59;;;;;;;37.87;20.17;;;-0.70;99.90;;;;;;5116830;28;20220;-64
2022/03/05 00:39:25;;;;;;;36.77;20.70;;;-0.70;99.90;;;;;;5116931;28;20661;-64
2022/03/05 00:41:51;;;;;;;37.30;19.57;;;-0.70;99.90;;;;;;5116864;28;20523;-63
2022/03/05 00:44:17;;;;;;;41.53;20.43;;;-0.60;99.90;;;;;;5116701;28;20199;-63
2022/03/05 00:46:42;;;;;;;42.77;21.47;;;-0.60;99.90;;;;;;5116670;28;20172;-64
2022/03/05 00:49:08;;;;;;;38.40;19.73;;;-0.60;99.90;;;;;;5116645;28;20176;-63
2022/03/05 00:51:34;;;;;;;35.93;20.13;;;-0.70;99.90;;;;;;5116738;28;20164;-63
2022/03/05 00:54:00;;;;;;;34.27;20.33;;;-0.70;99.90;;;;;;5116482;28;20227;-63
2022/03/05 00:56:26;;;;;;;43.33;20.67;;;-0.90;99.90;;;;;;5116779;28;20228;-63
2022/03/05 00:58:51;;;;;;;41.53;20.93;;;-0.90;99.90;;;;;;5116556;28;20168;-63
2022/03/05 01:01:17;;;;;;;37.03;20.60;;;-0.90;99.90;;;;;;5115244;28;20179;-63
2022/03/05 01:03:44;;;;;;;40.63;21.43;;;-1.00;99.90;;;;;;5116676;28;20706;-63
2022/03/05 01:06:10;;;;;;;36.53;20.27;;;-1.00;99.90;;;;;;5116681;28;20169;-63
2022/03/05 01:08:36;;;;;;;37.70;19.23;;;-1.00;99.90;;;;;;5116809;28;20210;-63
2022/03/05 01:11:02;;;;;;;40.00;20.70;;;-1.10;99.90;;;;;;5116584;28;20176;-62
2022/03/05 01:13:28;;;;;;;37.97;20.33;;;-1.20;99.90;;;;;;5116278;28;20173;-62
2022/03/05 01:15:54;;;;;;;40.57;21.17;;;-1.20;99.90;;;;;;5116067;28;20716;-62
2022/03/05 01:18:20;;;;;;;35.27;20.47;;;-1.20;99.90;;;;;;5116440;28;20251;-63
2022/03/05 01:20:45;;;;;;;37.37;20.67;;;-1.20;99.90;;;;;;5116148;28;20256;-62
2022/03/05 01:23:11;;;;;;;36.03;19.23;;;-1.30;99.90;;;;;;5116069;28;20176;-62
2022/03/05 01:25:37;;;;;;;40.43;21.43;;;-1.30;99.90;;;;;;5114617;28;20192;-62
2022/03/05 01:28:03;;;;;;;41.80;19.83;;;-1.30;99.90;;;;;;5115883;28;20176;-62
2022/03/05 01:30:28;;;;;;;43.03;21.03;;;-1.30;99.90;;;;;;5115854;28;20176;-62
2022/03/05 01:32:54;;;;;;;33.37;18.63;;;-1.40;99.90;;;;;;5114331;28;20683;-63
2022/03/05 01:35:20;;;;;;;37.10;20.23;;;-1.30;99.90;;;;;;5115948;28;20250;-63
2022/03/05 01:37:46;;;;;;;41.63;19.67;;;-1.40;99.90;;;;;;5114498;28;20172;-63
2022/03/05 01:40:12;;;;;;;45.43;20.13;;;-1.50;99.90;;;;;;5115713;28;20247;-62
2022/03/05 01:42:38;;;;;;;39.87;19.77;;;-1.50;99.90;;;;;;5115643;28;20504;-63
2022/03/05 01:45:04;;;;;;;38.50;21.03;;;-1.50;99.90;;;;;;5115539;28;20196;-63
2022/03/05 01:47:30;;;;;;;44.37;20.63;;;-1.50;99.90;;;;;;5115920;28;20522;-69
2022/03/05 01:49:56;;;;;;;43.43;20.83;;;-1.60;99.90;;;;;;5115505;28;20230;-62
2022/03/05 01:52:21;;;;;;;39.60;20.17;;;-1.60;99.90;;;;;;5114308;28;20225;-62
2022/03/05 01:54:48;;;;;;;34.47;18.50;;;-1.70;99.90;;;;;;5115978;28;20207;-63
2022/03/05 01:57:13;;;;;;;41.50;21.03;;;-1.80;99.90;;;;;;5115882;28;20192;-63
2022/03/05 01:59:39;;;;;;;41.30;20.20;;;-1.80;99.90;;;;;;5115808;28;20173;-64
2022/03/05 02:02:05;;;;;;;36.50;20.23;;;-1.70;99.90;;;;;;5115718;28;20709;-63
2022/03/05 02:04:31;;;;;;;39.60;19.37;;;-1.80;99.90;;;;;;5115818;28;20199;-64
2022/03/05 02:06:57;;;;;;;38.37;19.90;;;-1.70;99.90;;;;;;5115251;28;20204;-63
2022/03/05 02:09:22;;;;;;;35.83;20.10;;;-1.80;99.90;;;;;;5115602;28;20509;-63
2022/03/05 02:11:48;;;;;;;39.20;21.40;;;-1.80;99.90;;;;;;5115001;28;20183;-64
2022/03/05 02:14:19;;;;;;;37.07;19.50;;;-1.70;99.90;;;;;;5114941;28;20257;-64
2022/03/05 02:16:45;;;;;;;38.40;19.60;;;-1.80;99.90;;;;;;5113597;28;20231;-64
2022/03/05 02:19:11;;;;;;;41.57;20.73;;;-1.90;99.90;;;;;;5115458;28;20253;-63
2022/03/05 02:21:37;;;;;;;37.93;19.90;;;-1.90;99.90;;;;;;5114905;28;20671;-63
2022/03/05 02:24:03;;;;;;;36.50;18.77;;;-1.90;99.90;;;;;;5115202;28;20192;-64
2022/03/05 02:26:29;;;;;;;41.67;20.57;;;-1.80;99.90;;;;;;5115162;28;20207;-64
2022/03/05 02:28:55;;;;;;;34.87;20.83;;;-1.80;99.90;;;;;;5114882;28;20580;-63
2022/03/05 02:31:22;;;;;;;43.43;21.43;;;-1.80;99.90;;;;;;5114816;28;20237;-64
2022/03/05 02:33:52;;;;;;;37.10;19.80;;;-1.90;99.90;;;;;;5114825;28;20196;-64
2022/03/05 02:36:21;;;;;;;41.73;21.70;;;-1.90;99.90;;;;;;5115037;28;20219;-64
2022/03/05 02:38:47;;;;;;;39.50;21.03;;;-1.90;99.90;;;;;;5115199;28;20164;-63
2022/03/05 02:41:12;;;;;;;40.17;20.27;;;-2.00;99.90;;;;;;5114487;28;20189;-64
2022/03/05 02:43:38;;;;;;;41.30;21.50;;;-2.00;99.90;;;;;;5114580;28;20692;-63
2022/03/05 02:46:04;;;;;;;39.03;20.07;;;-2.10;99.90;;;;;;5113267;28;20184;-64
2022/03/05 02:48:29;;;;;;;44.87;20.83;;;-2.10;99.90;;;;;;5115223;28;20172;-63
2022/03/05 02:50:55;;;;;;;48.03;21.57;;;-2.10;99.90;;;;;;5113980;28;20679;-64
2022/03/05 02:53:22;;;;;;;41.97;21.00;;;-2.20;99.90;;;;;;5115504;28;20179;-63
2022/03/05 02:55:48;;;;;;;40.67;20.00;;;-2.20;99.90;;;;;;5115317;28;20241;-63
2022/03/05 02:58:14;;;;;;;36.53;19.80;;;-2.20;99.90;;;;;;5114422;28;20698;-64
2022/03/05 03:00:40;;;;;;;43.67;20.97;;;-2.20;99.90;;;;;;5112901;28;20173;-63
2022/03/05 03:03:06;;;;;;;42.73;20.97;;;-2.10;99.90;;;;;;5114299;28;20252;-63
2022/03/05 03:05:32;;;;;;;35.30;19.90;;;-2.20;99.90;;;;;;5114121;28;20208;-63
2022/03/05 03:07:57;;;;;;;33.80;18.80;;;-2.20;99.90;;;;;;5114057;28;20160;-64
2022/03/05 03:10:23;;;;;;;34.10;19.43;;;-2.10;99.90;;;;;;5112639;28;20220;-63
2022/03/05 03:12:49;;;;;;;44.03;20.67;;;-2.10;99.90;;;;;;5112649;28;20179;-64
2022/03/05 03:15:15;;;;;;;39.33;21.83;;;-2.20;99.90;;;;;;5113858;28;20242;-63
2022/03/05 03:17:49;;;;;;;36.87;20.60;;;-2.20;99.90;;;;;;5112624;28;20213;-63
2022/03/05 03:20:17;;;;;;;38.00;19.40;;;-2.30;99.90;;;;;;5114591;28;20156;-64
2022/03/05 03:22:43;;;;;;;33.90;19.73;;;-2.30;99.90;;;;;;5112460;28;20259;-64
2022/03/05 03:25:12;;;;;;;36.23;19.73;;;-2.30;99.90;;;;;;5113809;28;20196;-64
2022/03/05 03:27:39;;;;;;;38.07;19.27;;;-2.30;99.90;;;;;;5113817;28;20656;-63
2022/03/05 03:30:06;;;;;;;34.47;19.90;;;-2.30;99.90;;;;;;5113817;28;20172;-63
2022/03/05 03:32:32;;;;;;;38.33;21.10;;;-2.40;99.90;;;;;;5113638;28;20266;-63
2022/03/05 03:34:58;;;;;;;38.27;20.33;;;-2.40;99.90;;;;;;5112458;28;20288;-64
2022/03/05 03:37:28;;;;;;;40.77;20.03;;;-2.40;99.90;;;;;;5113630;28;20199;-63
2022/03/05 03:39:58;;;;;;;39.03;18.83;;;-2.40;99.90;;;;;;5113705;28;20152;-63
2022/03/05 03:42:26;;;;;;;41.80;19.97;;;-2.40;99.90;;;;;;5114267;28;20173;-64
2022/03/05 03:44:52;;;;;;;38.23;19.43;;;-2.30;99.90;;;;;;5113943;28;20189;-64
2022/03/05 03:47:19;;;;;;;36.50;19.00;;;-2.40;99.90;;;;;;5114026;28;20173;-64
2022/03/05 03:49:45;;;;;;;33.37;19.33;;;-2.40;99.90;;;;;;5116680;28;20173;-64
2022/03/05 03:55:35;;;;;;;40.73;20.93;;;-2.50;99.90;;;;;;5117759;28;20195;-64
2022/03/05 04:02:20;;;;;;;37.60;20.50;;;-2.50;99.90;;;;;;5115703;28;20243;-63
2022/03/05 04:04:47;;;;;;;43.13;20.30;;;-2.40;99.90;;;;;;5115401;28;20664;-64
2022/03/05 04:10:34;;;;;;;45.57;21.60;;;-2.50;99.90;;;;;;5116607;28;20191;-63
2022/03/05 04:13:00;;;;;;;41.00;20.57;;;-2.70;99.90;;;;;;5116162;28;20180;-63
2022/03/05 04:15:26;;;;;;;43.80;20.20;;;-2.70;99.90;;;;;;5117184;27;20229;-63
2022/03/05 04:17:52;;;;;;;37.33;20.87;;;-2.60;99.90;;;;;;5117194;28;20625;-63
2022/03/05 04:20:18;;;;;;;35.70;20.47;;;-2.70;99.90;;;;;;5117234;28;20642;-63
2022/03/05 04:22:43;;;;;;;32.93;19.17;;;-2.70;99.90;;;;;;5117198;28;20197;-63
2022/03/05 04:27:58;;;;;;;38.07;19.13;;;-2.70;99.90;;;;;;5117685;28;20171;-63
2022/03/05 04:30:23;;;;;;;39.20;19.40;;;-2.80;99.90;;;;;;5116906;28;20177;-63
2022/03/05 04:32:53;;;;;;;44.33;21.17;;;-2.80;99.90;;;;;;5116922;28;20275;-64
2022/03/05 04:38:41;;;;;;;36.03;21.13;;;-2.80;99.90;;;;;;5116866;28;20214;-63
2022/03/05 04:41:07;;;;;;;41.73;19.37;;;-2.80;99.90;;;;;;5117370;28;20180;-63
2022/03/05 04:43:32;;;;;;;38.97;20.57;;;-2.90;99.90;;;;;;5116761;28;20168;-63
2022/03/05 04:52:42;;;;;;;36.57;17.90;;;-3.00;99.90;;;;;;5116820;28;20247;-63
2022/03/05 04:55:08;;;;;;;37.83;19.13;;;-2.90;99.90;;;;;;5116529;28;20275;-63
2022/03/05 04:57:34;;;;;;;43.10;19.93;;;-3.00;99.90;;;;;;5116670;28;20251;-63
2022/03/05 05:00:00;;;;;;;37.97;20.53;;;-3.00;99.90;;;;;;5114997;28;20637;-63
2022/03/05 05:02:26;;;;;;;43.40;19.07;;;-3.10;99.90;;;;;;5115233;28;20196;-64
2022/03/05 05:04:51;;;;;;;35.67;19.43;;;-3.10;99.90;;;;;;5116429;28;20283;-63
2022/03/05 05:07:17;;;;;;;31.70;19.77;;;-3.00;99.90;;;;;;5116354;28;20169;-64
2022/03/05 05:09:43;;;;;;;41.20;22.10;;;-3.00;99.90;;;;;;5116827;28;20179;-63
2022/03/05 05:12:10;;;;;;;39.70;20.83;;;-3.00;99.90;;;;;;5116586;28;20189;-63
2022/03/05 05:15:28;;;;;;;35.20;19.53;;;-2.90;99.90;;;;;;5116325;28;20200;-63
2022/03/05 05:21:21;;;;;;;38.50;20.13;;;-3.10;99.90;;;;;;5116320;28;20211;-64
2022/03/05 05:24:25;;;;;;;36.07;18.97;;;-3.00;99.90;;;;;;5116504;28;20195;-64
2022/03/05 05:26:52;;;;;;;37.73;19.70;;;-2.90;99.90;;;;;;5116081;28;20180;-64
2022/03/05 05:29:18;;;;;;;38.83;19.60;;;-2.90;99.90;;;;;;5116079;27;20532;-63
2022/03/05 05:31:43;;;;;;;33.93;19.13;;;-3.00;99.90;;;;;;5115558;28;20199;-64
2022/03/05 05:37:32;;;;;;;43.77;20.57;;;-3.00;99.90;;;;;;5115830;28;20226;-64
2022/03/05 05:39:57;;;;;;;43.33;19.97;;;-3.10;99.90;;;;;;5115548;28;20197;-63
2022/03/05 05:42:43;;;;;;;44.00;21.60;;;-3.10;99.90;;;;;;5116233;28;20168;-64
2022/03/05 05:45:09;;;;;;;44.57;20.37;;;-3.00;99.90;;;;;;5114331;28;20200;-64
2022/03/05 05:47:35;;;;;;;39.70;20.27;;;-3.10;99.90;;;;;;5115805;28;20172;-63
2022/03/05 05:50:03;;;;;;;37.33;19.60;;;-3.20;99.90;;;;;;5116357;28;20566;-64
2022/03/05 05:52:28;;;;;;;38.43;19.47;;;-3.20;99.90;;;;;;5115435;28;20177;-63
2022/03/05 05:54:54;;;;;;;50.03;23.00;;;-3.20;99.90;;;;;;5115306;28;20329;-63
2022/03/05 05:57:20;;;;;;;40.47;19.60;;;-3.20;99.90;;;;;;5115274;28;20200;-63
2022/03/05 05:59:45;;;;;;;38.50;19.73;;;-3.20;99.90;;;;;;5115495;28;20172;-63
2022/03/05 06:02:11;;;;;;;45.80;23.00;;;-3.20;99.90;;;;;;5115428;28;20179;-64
2022/03/05 06:04:37;;;;;;;43.97;21.30;;;-3.30;99.90;;;;;;5115344;28;20564;-64
2022/03/05 06:07:03;;;;;;;38.30;20.87;;;-3.20;99.90;;;;;;5115087;28;20255;-64
2022/03/05 06:09:28;;;;;;;41.60;22.27;;;-3.20;99.90;;;;;;5115552;28;20210;-63
2022/03/05 06:11:54;;;;;;;42.00;20.27;;;-3.20;99.90;;;;;;5114308;28;20705;-63
2022/03/05 06:14:20;;;;;;;42.33;21.00;;;-3.20;99.90;;;;;;5114930;28;20268;-64
2022/03/05 06:16:46;;;;;;;47.20;21.20;;;-3.20;99.90;;;;;;5115067;28;20246;-63
2022/03/05 06:19:11;;;;;;;35.10;19.30;;;-3.20;99.90;;;;;;5115339;28;20180;-64
2022/03/05 06:21:37;;;;;;;45.73;21.83;;;-3.20;99.90;;;;;;5114796;28;20169;-63
2022/03/05 06:24:04;;;;;;;44.23;22.47;;;-3.30;99.90;;;;;;5115019;28;20223;-63
2022/03/05 06:26:31;;;;;;;38.43;19.87;;;-3.20;99.90;;;;;;5114687;28;20261;-64
2022/03/05 06:28:57;;;;;;;41.90;21.80;;;-3.20;99.90;;;;;;5114688;28;20168;-64
2022/03/05 06:31:23;;;;;;;40.40;21.17;;;-3.20;99.90;;;;;;5114455;28;20188;-64
2022/03/05 06:33:49;;;;;;;44.47;22.60;;;-3.20;99.90;;;;;;5114757;28;20649;-63
2022/03/05 06:36:15;;;;;;;48.70;21.50;;;-3.10;99.90;;;;;;5114519;28;20261;-64
2022/03/05 06:38:40;;;;;;;41.73;21.60;;;-3.10;99.90;;;;;;5115066;28;20188;-63
2022/03/05 06:41:06;;;;;;;34.47;20.60;;;-3.10;99.90;;;;;;5113187;28;20179;-64
2022/03/05 06:43:32;;;;;;;42.83;20.67;;;-3.00;99.90;;;;;;5114346;28;20549;-63
2022/03/05 06:45:57;;;;;;;39.20;20.83;;;-3.00;99.90;;;;;;5113129;28;20185;-64
2022/03/05 06:48:23;;;;;;;41.73;21.57;;;-2.90;99.90;;;;;;5114309;28;20638;-64
2022/03/05 06:50:49;;;;;;;38.00;22.17;;;-2.80;99.90;;;;;;5114426;28;20180;-64
2022/03/05 06:53:15;;;;;;;50.60;23.43;;;-2.80;99.90;;;;;;5114374;28;20263;-64
2022/03/05 06:55:40;;;;;;;44.90;24.00;;;-2.70;99.90;;;;;;5114031;28;20196;-64
2022/03/05 06:58:06;;;;;;;38.70;20.67;;;-2.60;99.90;;;;;;5114823;28;20228;-64
2022/03/05 07:00:32;;;;;;;43.57;22.07;;;-2.60;99.90;;;;;;5114458;28;20252;-64
2022/03/05 07:02:58;;;;;;;50.10;24.37;;;-2.50;99.90;;;;;;5112831;28;20179;-63
2022/03/05 07:05:24;;;;;;;40.70;22.77;;;-2.40;99.90;;;;;;5114205;28;20665;-63
2022/03/05 07:07:49;;;;;;;43.87;22.43;;;-2.30;99.90;;;;;;5115314;28;20211;-63
2022/03/05 07:10:15;;;;;;;44.53;23.70;;;-2.10;99.90;;;;;;5114311;28;20172;-64
2022/03/05 07:12:41;;;;;;;50.60;27.17;;;-2.00;99.90;;;;;;5114474;28;20220;-64
2022/03/05 07:15:07;;;;;;;50.40;28.93;;;-1.90;99.90;;;;;;5113989;28;20191;-64
2022/03/05 07:17:33;;;;;;;55.53;29.63;;;-1.80;99.90;;;;;;5114043;28;20275;-63
2022/03/05 07:19:59;;;;;;;47.20;27.23;;;-1.70;99.90;;;;;;5113939;28;20260;-64
2022/03/05 07:22:25;;;;;;;49.50;27.00;;;-1.60;99.90;;;;;;5112878;28;20263;-63
2022/03/05 07:24:51;;;;;;;43.53;24.93;;;-1.50;99.90;;;;;;5113919;28;20200;-63
2022/03/05 07:27:17;;;;;;;50.83;24.40;;;-1.40;99.90;;;;;;5114238;28;20255;-64
2022/03/05 07:29:43;;;;;;;38.77;23.03;;;-1.30;99.90;;;;;;5114045;28;20516;-63
2022/03/05 07:32:10;;;;;;;48.03;24.87;;;-1.20;99.90;;;;;;5113781;28;20192;-63
2022/03/05 07:34:36;;;;;;;49.57;24.43;;;-1.10;99.90;;;;;;5112816;28;20253;-63
2022/03/05 07:37:02;;;;;;;39.23;21.90;;;-0.90;99.90;;;;;;5114018;28;20601;-63
2022/03/05 07:39:28;;;;;;;43.10;22.73;;;-0.80;99.90;;;;;;5113981;28;20168;-64
2022/03/05 07:41:54;;;;;;;46.57;22.30;;;-0.60;99.90;;;;;;5114753;28;20180;-63
2022/03/05 07:44:20;;;;;;;44.27;22.90;;;-0.40;99.90;;;;;;5114637;28;20560;-63
2022/03/05 07:46:46;;;;;;;41.33;22.67;;;-0.20;99.90;;;;;;5114695;28;20180;-64
2022/03/05 07:49:11;;;;;;;46.53;24.50;;;0.30;99.90;;;;;;5114567;28;20176;-63
2022/03/05 07:51:37;;;;;;;39.03;22.33;;;1.00;99.90;;;;;;5114377;28;20208;-63
2022/03/05 07:54:04;;;;;;;37.10;22.17;;;1.70;99.90;;;;;;5112444;28;20204;-63
2022/03/05 07:56:30;;;;;;;40.00;22.07;;;2.30;99.90;;;;;;5113837;28;20204;-67
2022/03/05 07:58:56;;;;;;;40.57;21.77;;;2.50;99.90;;;;;;5114009;28;20179;-64
2022/03/05 08:01:21;;;;;;;42.10;21.00;;;2.60;99.90;;;;;;5114147;28;20173;-64
2022/03/05 08:03:47;;;;;;;41.67;22.53;;;2.70;99.90;;;;;;5113984;28;20200;-61
2022/03/05 08:06:13;;;;;;;43.00;22.93;;;2.70;99.90;;;;;;5114047;28;20177;-63
2022/03/05 08:08:38;;;;;;;38.03;21.43;;;2.80;99.90;;;;;;5113754;28;20544;-62
2022/03/05 08:11:04;;;;;;;39.13;22.07;;;2.80;99.90;;;;;;5114316;28;20180;-63
2022/03/05 08:13:30;;;;;;;35.73;21.10;;;2.70;99.90;;;;;;5113352;28;20173;-64
2022/03/05 08:15:56;;;;;;;37.50;21.60;;;2.70;99.90;;;;;;5113253;28;20200;-64
2022/03/05 08:18:22;;;;;;;39.20;21.47;;;2.70;99.90;;;;;;5113476;28;20176;-64
2022/03/05 08:20:48;;;;;;;37.13;21.30;;;2.90;99.90;;;;;;5111997;28;20172;-63
2022/03/05 08:23:14;;;;;;;36.07;20.63;;;2.90;99.90;;;;;;5113218;28;20168;-64
2022/03/05 08:25:40;;;;;;;38.50;20.83;;;3.20;99.90;;;;;;5113146;28;20204;-63
2022/03/05 08:28:06;;;;;;;30.97;19.63;;;3.90;99.90;;;;;;5113495;28;20225;-64
2022/03/05 08:30:32;;;;;;;35.87;19.20;;;5.30;99.90;;;;;;5113250;28;20212;-64
2022/03/05 08:32:58;;;;;;;29.63;18.10;;;6.80;99.90;;;;;;5112113;28;20283;-64
2022/03/05 08:35:24;;;;;;;28.23;16.70;;;7.90;99.90;;;;;;5116247;28;20272;-64
2022/03/05 08:37:50;;;;;;;26.30;17.25;;;8.90;99.90;;;;;;5116782;28;20208;-64
2022/03/05 08:40:17;;;;;;;26.88;15.88;;;9.70;99.90;;;;;;5116837;28;20176;-64
2022/03/05 08:42:44;;;;;;;30.75;16.77;;;10.30;99.90;;;;;;5116899;28;20250;-66
2022/03/05 08:45:10;;;;;;;25.75;16.83;;;10.70;99.90;;;;;;5116938;28;20192;-65
2022/03/05 08:47:36;;;;;;;24.77;16.30;;;11.10;99.90;;;;;;5116779;28;20173;-65
2022/03/05 08:50:04;;;;;;;26.52;17.00;;;11.40;99.90;;;;;;5116914;27;20168;-65
2022/03/05 08:52:35;;;;;;;27.65;17.08;;;11.60;99.40;;;;;;5116529;28;20203;-65
2022/03/05 08:55:06;;;;;;;26.20;16.05;;;12.00;99.60;;;;;;5116427;28;20252;-65
2022/03/05 08:57:32;;;;;;;27.20;16.60;;;12.10;97.30;;;;;;5116703;28;20184;-64
2022/03/05 08:59:58;;;;;;;24.38;16.73;;;12.20;95.20;;;;;;5116384;28;20172;-64
2022/03/05 09:02:23;;;;;;;26.45;16.85;;;12.50;95.60;;;;;;5114893;28;20188;-64
2022/03/05 09:04:49;;;;;;;24.92;16.52;;;12.30;95.70;;;;;;5116229;28;20195;-64
2022/03/05 09:07:15;;;;;;;31.13;16.77;;;12.60;96.70;;;;;;5116308;28;20656;-64
2022/03/05 09:09:40;;;;;;;24.50;16.20;;;12.50;96.20;;;;;;5116489;28;20183;-64
2022/03/05 09:12:06;;;;;;;23.52;15.30;;;12.10;96.70;;;;;;5116165;28;20176;-64
2022/03/05 09:14:32;;;;;;;25.60;16.15;;;11.80;97.40;;;;;;5114787;28;20253;-64
2022/03/05 09:16:58;;;;;;;26.60;16.80;;;11.60;96.90;;;;;;5115989;28;20196;-63
2022/03/05 09:19:24;;;;;;;23.48;15.60;;;11.60;97.50;;;;;;5116035;28;20608;-64
2022/03/05 09:21:49;;;;;;;24.88;16.20;;;11.70;97.60;;;;;;5114712;28;20200;-63
2022/03/05 09:24:15;;;;;;;28.77;17.67;;;11.50;97.40;;;;;;5114598;28;20224;-63
2022/03/05 09:26:41;;;;;;;25.75;16.58;;;11.40;97.10;;;;;;5115878;28;20541;-62
2022/03/05 09:29:07;;;;;;;26.52;18.08;;;10.60;99.90;;;;;;5115901;28;20203;-63
2022/03/05 09:31:32;;;;;;;27.33;18.20;;;10.10;99.90;;;;;;5115722;28;20229;-63
2022/03/05 09:34:54;;;;;;;26.98;16.80;;;9.90;99.90;;;;;;5114303;28;20203;-63
2022/03/05 09:40:42;;;;;;;27.27;17.05;;;9.00;99.90;;;;;;5115910;28;20213;-64
2022/03/05 09:43:08;;;;;;;25.67;16.40;;;8.70;99.90;;;;;;5115620;27;20149;-63
2022/03/05 09:49:15;;;;;;;26.03;17.03;;;7.90;99.90;;;;;;5115673;28;20152;-62
2022/03/05 09:51:40;;;;;;;23.17;15.83;;;7.60;99.90;;;;;;5114156;28;20195;-63
2022/03/05 09:57:28;;;;;;;22.90;16.27;;;7.60;99.90;;;;;;5115703;28;20575;-62
2022/03/05 09:59:54;;;;;;;27.03;17.60;;;7.60;99.90;;;;;;5115863;27;20165;-62
2022/03/05 10:02:20;;;;;;;28.93;17.50;;;7.70;99.90;;;;;;5115336;28;20175;-62
2022/03/05 10:04:45;;;;;;;27.13;17.30;;;7.90;99.90;;;;;;5115086;28;20560;-62
2022/03/05 10:07:17;;;;;;;27.53;16.07;;;8.00;99.90;;;;;;5113888;28;20184;-63
2022/03/05 10:09:47;;;;;;;26.97;15.87;;;8.00;99.90;;;;;;5115258;28;20633;-62
2022/03/05 10:12:35;;;;;;;22.13;14.37;;;8.00;99.90;;;;;;5115599;28;20511;-62
2022/03/05 10:15:06;;;;;;;24.93;15.17;;;8.10;99.90;;;;;;5114961;28;20196;-62
2022/03/05 10:17:59;;;;;;;25.10;15.73;;;8.20;99.90;;;;;;5114823;27;20201;-62
2022/03/05 10:20:26;;;;;;;22.53;14.13;;;8.30;99.90;;;;;;5115400;28;20500;-63
2022/03/05 10:22:57;;;;;;;21.20;14.50;;;8.30;99.10;;;;;;5114669;28;20172;-63
2022/03/05 10:25:37;;;;;;;20.67;14.10;;;8.20;98.90;;;;;;5114994;28;20196;-63
2022/03/05 10:28:16;;;;;;;20.83;14.20;;;8.30;99.90;;;;;;5113472;28;20156;-62
2022/03/05 10:30:47;;;;;;;24.93;14.67;;;8.30;97.70;;;;;;5115132;28;20201;-62
2022/03/05 10:33:36;;;;;;;21.93;13.83;;;8.40;98.00;;;;;;5114475;28;20193;-64
2022/03/05 10:36:04;;;;;;;18.63;12.80;;;8.50;98.90;;;;;;5114818;28;20192;-63
2022/03/05 10:38:59;;;;;;;19.97;13.20;;;8.60;98.40;;;;;;5114786;28;20637;-63
2022/03/05 10:41:40;;;;;;;21.10;13.33;;;8.60;96.60;;;;;;5114632;28;20181;-62
2022/03/05 10:44:11;;;;;;;19.30;13.17;;;8.60;96.30;;;;;;5114606;28;20258;-62
2022/03/05 10:46:41;;;;;;;19.17;13.23;;;8.60;95.80;;;;;;5114394;28;20206;-63
2022/03/05 10:49:18;;;;;;;20.00;12.83;;;8.70;95.10;;;;;;5114315;28;20172;-62
2022/03/05 10:55:17;;;;;;;18.57;13.10;;;8.70;94.80;;;;;;5114394;28;20195;-62
2022/03/05 10:58:14;;;;;;;22.27;14.30;;;8.80;95.70;;;;;;5113876;28;20697;-62
2022/03/05 11:00:41;;;;;;;23.43;13.23;;;8.80;92.90;;;;;;5113316;28;20267;-62
2022/03/05 11:03:08;;;;;;;18.23;12.93;;;8.90;93.10;;;;;;5114510;28;20171;-62
2022/03/05 11:05:35;;;;;;;18.87;13.30;;;9.10;94.10;;;;;;5114296;28;20184;-64
2022/03/05 11:08:01;;;;;;;20.87;12.97;;;9.30;92.60;;;;;;5115558;28;20523;-63
2022/03/05 11:10:29;;;;;;;20.77;12.70;;;9.60;91.10;;;;;;5114120;28;20217;-64
2022/03/05 11:12:59;;;;;;;17.77;11.80;;;9.80;91.50;;;;;;5113982;28;20168;-63
2022/03/05 11:15:26;;;;;;;20.80;13.37;;;9.90;90.90;;;;;;5112739;28;20188;-63
2022/03/05 11:17:52;;;;;;;23.70;14.03;;;10.00;91.30;;;;;;5113926;28;20227;-64
2022/03/05 11:21:09;;;;;;;21.23;12.60;;;10.10;87.80;;;;;;5113974;28;20221;-63
2022/03/05 11:24:12;;;;;;;19.53;12.50;;;10.20;89.80;;;;;;5114077;28;20606;-63
2022/03/05 11:26:38;;;;;;;19.20;13.27;;;10.40;88.30;;;;;;5112601;28;20172;-63
2022/03/05 11:29:04;;;;;;;21.30;13.70;;;10.70;89.30;;;;;;5113838;28;20548;-63
2022/03/05 11:31:34;;;;;;;18.98;12.38;;;10.70;83.70;;;;;;5113723;28;20188;-64
2022/03/05 11:34:19;;;;;;;20.13;13.07;;;11.00;82.00;;;;;;5114080;28;20241;-64
2022/03/05 11:36:50;;;;;;;18.83;12.15;;;11.10;84.60;;;;;;5112495;28;20714;-63
2022/03/05 11:40:07;;;;;;;19.45;13.15;;;11.10;82.40;;;;;;5114048;28;20160;-64
2022/03/05 11:49:53;;;;;;;19.87;11.73;;;10.50;77.00;;;;;;5113970;28;20194;-63
2022/03/05 11:52:19;;;;;;;17.77;11.13;;;10.80;79.40;;;;;;5113715;28;20175;-63
2022/03/05 11:55:10;;;;;;;15.95;10.93;;;11.00;75.90;;;;;;5113712;28;20673;-63
2022/03/05 11:57:39;;;;;;;18.35;11.80;;;11.10;69.10;;;;;;5113435;28;20210;-63
2022/03/05 12:00:06;;;;;;;20.23;11.48;;;10.90;78.00;;;;;;5113573;28;20168;-63
2022/03/05 12:02:41;;;;;;;19.83;11.88;;;11.30;74.40;;;;;;5113560;28;20169;-63
2022/03/05 12:05:07;;;;;;;18.77;11.10;;;11.10;76.80;;;;;;5113661;28;20661;-63
2022/03/05 12:11:09;;;;;;;18.05;11.95;;;11.80;76.70;;;;;;5117468;28;20239;-63
2022/03/05 12:13:40;;;;;;;17.48;11.13;;;12.00;70.00;;;;;;5117962;28;20557;-63
2022/03/05 12:16:29;;;;;;;14.63;11.20;;;12.40;74.50;;;;;;5117520;27;20649;-64
2022/03/05 12:18:57;;;;;;;18.23;11.80;;;12.90;70.90;;;;;;5117751;28;20640;-63
2022/03/05 12:21:31;;;;;;;16.33;10.70;;;12.70;72.30;;;;;;5117322;28;20235;-63
2022/03/05 12:24:08;;;;;;;15.77;10.85;;;13.00;71.60;;;;;;5117055;28;20237;-63
2022/03/05 12:26:37;;;;;;;18.23;11.73;;;13.30;68.50;;;;;;5117405;28;20170;-63
2022/03/05 12:29:04;;;;;;;17.20;11.00;;;13.50;70.30;;;;;;5116973;28;20169;-63
2022/03/05 12:31:30;;;;;;;16.75;10.40;;;13.70;66.30;;;;;;5116833;28;20215;-64
2022/03/05 12:33:56;;;;;;;15.55;10.52;;;13.70;67.80;;;;;;5116826;28;20192;-63
2022/03/05 12:36:22;;;;;;;15.32;10.75;;;13.80;68.00;;;;;;5117301;28;20596;-64
2022/03/05 12:38:59;;;;;;;15.98;11.07;;;14.00;64.20;;;;;;5117349;28;20160;-64
2022/03/05 12:41:26;;;;;;;17.27;10.70;;;14.20;67.30;;;;;;5117095;28;20160;-63
2022/03/05 12:43:53;;;;;;;14.25;9.77;;;14.40;62.00;;;;;;5116949;28;20192;-64
2022/03/05 12:46:19;;;;;;;12.93;9.32;;;14.00;63.00;;;;;;5116932;28;20169;-64
2022/03/05 12:48:45;;;;;;;14.73;10.55;;;14.20;63.30;;;;;;5116965;28;20153;-63
2022/03/05 12:51:10;;;;;;;16.13;10.88;;;14.10;64.30;;;;;;5116572;28;20629;-63
2022/03/05 12:53:36;;;;;;;17.70;10.95;;;14.10;63.30;;;;;;5116701;27;20169;-63
2022/03/05 12:56:03;;;;;;;15.15;10.60;;;14.10;62.90;;;;;;5116378;28;20197;-63
2022/03/05 12:58:38;;;;;;;15.48;10.48;;;14.40;63.80;;;;;;5116409;28;20192;-64
2022/03/05 13:01:08;;;;;;;16.00;10.35;;;14.90;61.70;;;;;;5116670;28;20235;-64
2022/03/05 13:03:35;;;;;;;15.63;9.73;;;15.30;62.40;;;;;;5115074;28;20259;-64
2022/03/05 13:06:03;;;;;;;15.35;10.10;;;15.70;58.90;;;;;;5116617;28;20180;-64
2022/03/05 13:08:37;;;;;;;15.05;10.77;;;15.80;59.90;;;;;;5115525;28;20177;-64
2022/03/05 13:11:04;;;;;;;16.63;10.73;;;15.70;57.90;;;;;;5115274;28;20183;-64
2022/03/05 13:13:34;;;;;;;12.30;9.55;;;15.60;60.00;;;;;;5115162;28;20202;-63
2022/03/05 13:16:01;;;;;;;14.32;9.82;;;15.30;57.80;;;;;;5114928;28;20207;-64
2022/03/05 13:18:27;;;;;;;13.25;9.65;;;15.30;57.80;;;;;;5114999;28;20516;-64
2022/03/05 13:20:52;;;;;;;14.75;9.77;;;15.60;54.10;;;;;;5116312;28;20184;-64
2022/03/05 13:23:21;;;;;;;12.88;9.38;;;15.50;53.00;;;;;;5116293;28;20173;-64
2022/03/05 13:25:48;;;;;;;13.05;9.38;;;15.20;52.40;;;;;;5116411;28;20168;-64
2022/03/05 13:28:20;;;;;;;13.65;9.38;;;15.10;51.90;;;;;;5115812;28;20165;-64